Twinsburg, Ohio
Current Conditions -  °F | °C
As of 4:41 AM on Friday 28 Nov 2014 (Local Time) from KPOV Reporting Station
Scattered Clouds Scattered Clouds  
Wind Chill: 10°   Ceiling: Unl
Heat Index: 23°   Visibility: 10mi
Dew Point: 13°   Wind: 14mph
Humidity: 67%   Direction: 290°WNW
Pressure: 30.27"   Gusts: 18mph
Location:  41.31°N, 81.44°W
Report Text: KPOV 280941Z AUTO 29012G16KT 10SM SCT022 SCT050 M05/M10 A3027 RMK AO2 T10511104
Loading
Personal Weather Stations






























Interactive Weather Map New forecast layout! Learn more

10-Day Weather Forecast

Advertisements
Track Severe Weather on mobile